Time;durP1;ratioP1;P1;durP2;ratioP2;P2;SDS_P1;SDS_P2;PMS_P1;PMS_P2;Temp;Humidity;BMP_temperature;BMP_pressure;BME280_temperature;BME280_humidity;BME280_pressure;Samples;Min_cycle;Max_cycle;Signal;HPM_P1;HPM_P2
2023/04/20 00:02:24;;;;;;;0.10;0.10;;;;;;;;;;4966139;28;20023;-74
2023/04/20 00:04:49;;;;;;;0.13;0.13;;;8.90;99.90;;;;;;4968647;28;20015;-75
2023/04/20 00:07:15;;;;;;;0.40;0.40;;;;;;;;;;4969816;28;20038;-74
2023/04/20 00:09:42;;;;;;;0.10;0.10;;;;;;;;;;4969498;28;20272;-76
2023/04/20 00:12:07;;;;;;;0.20;0.20;;;8.70;99.90;;;;;;4969071;28;20019;-76
2023/04/20 00:14:34;;;;;;;0.10;0.10;;;;;;;;;;4972998;28;20109;-75
2023/04/20 00:17:00;;;;;;;1.08;1.08;;;;;;;;;;4969008;28;20033;-74
2023/04/20 00:19:27;;;;;;;0.20;0.20;;;8.70;99.90;;;;;;4968741;28;20047;-74
2023/04/20 00:21:53;;;;;;;0.00;0.00;;;9.00;99.90;;;;;;4951568;28;20063;-74
2023/04/20 00:24:19;;;;;;;0.10;0.10;;;8.90;99.90;;;;;;4967058;28;20034;-75
2023/04/20 00:26:45;;;;;;;25.48;23.40;;;;;;;;;;4964493;28;20023;-74
2023/04/20 00:29:10;;;;;;;0.20;0.20;;;8.50;99.90;;;;;;4964961;28;20110;-74
2023/04/20 00:31:37;;;;;;;0.10;0.10;;;;;;;;;;4963813;28;20099;-74
2023/04/20 00:34:03;;;;;;;0.10;0.10;;;;;;;;;;4966359;28;20035;-74
2023/04/20 00:36:28;;;;;;;0.10;0.10;;;8.50;99.90;;;;;;4963638;28;20027;-74
2023/04/20 00:38:55;;;;;;;0.10;0.10;;;8.40;99.90;;;;;;4968460;28;20023;-79
2023/04/20 00:41:22;;;;;;;0.20;0.20;;;8.30;99.90;;;;;;4973542;28;20027;-74
2023/04/20 00:43:53;;;;;;;0.10;0.10;;;8.40;99.90;;;;;;4975637;28;20066;-74
2023/04/20 00:46:20;;;;;;;0.10;0.10;;;8.40;99.90;;;;;;4973655;28;20023;-74
2023/04/20 00:48:48;;;;;;;0.10;0.10;;;8.30;99.90;;;;;;4972374;28;20065;-74
2023/04/20 00:51:15;;;;;;;0.10;0.10;;;8.30;99.90;;;;;;4975435;28;20102;-74
2023/04/20 00:53:40;;;;;;;0.00;0.00;;;8.30;99.90;;;;;;4974863;28;20033;-74
2023/04/20 00:56:07;;;;;;;0.10;0.10;;;8.30;99.90;;;;;;4969727;28;20015;-76
2023/04/20 00:58:33;;;;;;;0.10;0.10;;;8.20;99.90;;;;;;4968607;28;20106;-74
2023/04/20 01:00:58;;;;;;;0.10;0.10;;;8.20;99.90;;;;;;4968833;28;20054;-74
2023/04/20 01:03:24;;;;;;;0.10;0.10;;;8.20;99.90;;;;;;4969476;28;20517;-74
2023/04/20 01:05:50;;;;;;;0.10;0.10;;;8.20;99.90;;;;;;4972510;28;20022;-75
2023/04/20 01:08:16;;;;;;;0.08;0.08;;;8.20;99.90;;;;;;4975226;28;20231;-74
2023/04/20 01:10:42;;;;;;;0.10;0.10;;;8.10;99.90;;;;;;4976089;28;20033;-74
2023/04/20 01:13:07;;;;;;;2.35;2.25;;;8.10;99.90;;;;;;4975944;28;20537;-74
2023/04/20 01:15:34;;;;;;;0.17;0.17;;;8.10;99.90;;;;;;4970614;28;20054;-74
2023/04/20 01:17:59;;;;;;;0.10;0.10;;;8.00;99.90;;;;;;4975131;28;20337;-74
2023/04/20 01:20:25;;;;;;;0.10;0.10;;;8.00;99.90;;;;;;4957769;28;20042;-74
2023/04/20 01:22:55;;;;;;;0.00;0.00;;;7.90;99.90;;;;;;4969817;28;20102;-74
2023/04/20 01:25:21;;;;;;;0.10;0.10;;;7.90;99.90;;;;;;4961019;28;20027;-75
2023/04/20 01:27:47;;;;;;;0.00;0.00;;;7.80;99.90;;;;;;4981660;28;20045;-75
2023/04/20 01:30:13;;;;;;;0.10;0.10;;;7.80;99.90;;;;;;4956607;28;20019;-74
2023/04/20 01:32:44;;;;;;;0.10;0.10;;;7.80;99.90;;;;;;4972575;28;20316;-74
2023/04/20 01:35:11;;;;;;;0.10;0.10;;;7.70;99.90;;;;;;4971589;28;20030;-75
2023/04/20 01:37:41;;;;;;;0.10;0.10;;;7.70;99.90;;;;;;4972130;28;20541;-74
2023/04/20 01:40:08;;;;;;;0.20;0.20;;;7.70;99.90;;;;;;4973822;28;20159;-74
2023/04/20 01:42:36;;;;;;;0.10;0.10;;;7.60;99.90;;;;;;4966944;28;20019;-75
2023/04/20 01:45:05;;;;;;;0.10;0.10;;;7.60;99.90;;;;;;4955356;28;20142;-74
2023/04/20 01:47:31;;;;;;;0.00;0.00;;;7.60;99.90;;;;;;4970637;28;20070;-75
2023/04/20 01:49:56;;;;;;;0.10;0.10;;;7.60;99.90;;;;;;4967488;28;20470;-76
2023/04/20 01:52:23;;;;;;;0.10;0.10;;;;;;;;;;4966384;28;20253;-74
2023/04/20 01:54:48;;;;;;;0.10;0.10;;;7.30;99.90;;;;;;4961889;28;20042;-74
2023/04/20 01:57:14;;;;;;;0.00;0.00;;;7.10;99.90;;;;;;4964122;28;20321;-74
2023/04/20 01:59:40;;;;;;;0.10;0.10;;;7.30;99.90;;;;;;4962712;28;20560;-74
2023/04/20 02:02:06;;;;;;;8.75;8.05;;;;;;;;;;4964222;28;20265;-75
2023/04/20 02:04:32;;;;;;;0.00;0.00;;;7.20;99.90;;;;;;4963973;28;20122;-74
2023/04/20 02:06:58;;;;;;;0.00;0.00;;;7.20;99.90;;;;;;4962911;28;20402;-74
2023/04/20 02:09:24;;;;;;;0.10;0.10;;;7.60;99.90;;;;;;4963931;28;20108;-75
2023/04/20 02:11:50;;;;;;;3.15;3.00;;;7.20;99.90;;;;;;4945385;28;20031;-74
2023/04/20 02:14:16;;;;;;;0.08;0.08;;;7.00;99.90;;;;;;4944020;28;20038;-74
2023/04/20 02:16:43;;;;;;;0.00;0.00;;;;;;;;;;4960262;28;20097;-75
2023/04/20 02:19:10;;;;;;;0.00;0.00;;;6.90;99.90;;;;;;4962252;28;20143;-74
2023/04/20 02:21:36;;;;;;;4.35;4.20;;;6.90;99.90;;;;;;4963229;28;20225;-74
2023/04/20 02:24:02;;;;;;;0.05;0.05;;;6.80;99.90;;;;;;4944894;28;20042;-74
2023/04/20 02:26:29;;;;;;;0.00;0.00;;;7.00;99.90;;;;;;4945478;28;20033;-74
2023/04/20 02:28:56;;;;;;;0.57;0.57;;;;;;;;;;4963653;28;20035;-74
2023/04/20 02:31:22;;;;;;;0.40;0.40;;;;;;;;;;4947348;28;20077;-74
2023/04/20 02:33:48;;;;;;;0.10;0.10;;;;;;;;;;4963920;28;20177;-74
2023/04/20 02:36:14;;;;;;;0.10;0.10;;;6.60;99.90;;;;;;4945409;28;20325;-75
2023/04/20 02:38:40;;;;;;;0.10;0.10;;;6.50;99.90;;;;;;4965516;28;20229;-74
2023/04/20 02:41:06;;;;;;;0.08;0.08;;;6.60;99.90;;;;;;4965211;28;20027;-75
2023/04/20 02:43:34;;;;;;;0.73;0.73;;;;;;;;;;4965782;28;20034;-74
2023/04/20 02:46:01;;;;;;;0.00;0.00;;;;;;;;;;4947999;28;20031;-74
2023/04/20 02:48:27;;;;;;;0.10;0.10;;;6.50;99.90;;;;;;4949480;28;20240;-75
2023/04/20 02:50:55;;;;;;;0.00;0.00;;;6.40;99.90;;;;;;4970356;28;20046;-74
2023/04/20 02:53:21;;;;;;;0.05;0.05;;;;;;;;;;4965328;28;20015;-74
2023/04/20 02:55:47;;;;;;;0.10;0.10;;;6.40;99.90;;;;;;4967998;28;20490;-74
2023/04/20 02:58:14;;;;;;;0.10;0.10;;;;;;;;;;4970662;28;20027;-74
2023/04/20 03:00:40;;;;;;;0.10;0.10;;;;;;;;;;4974008;28;20019;-74
2023/04/20 03:03:06;;;;;;;0.00;0.00;;;;;;;;;;4967467;28;20216;-74
2023/04/20 03:05:32;;;;;;;0.00;0.00;;;;;;;;;;4951557;28;20062;-75
2023/04/20 03:07:58;;;;;;;0.00;0.00;;;6.20;99.90;;;;;;4971763;28;20042;-75
2023/04/20 03:10:24;;;;;;;0.10;0.10;;;6.30;99.90;;;;;;4972894;28;20027;-75
2023/04/20 03:12:49;;;;;;;0.10;0.10;;;6.20;99.90;;;;;;4950935;28;20039;-75
2023/04/20 03:15:16;;;;;;;0.00;0.00;;;6.20;99.90;;;;;;4967679;28;20106;-74
2023/04/20 03:17:41;;;;;;;0.10;0.10;;;6.20;99.90;;;;;;4953663;28;20073;-73
2023/04/20 03:20:08;;;;;;;0.00;0.00;;;5.80;99.90;;;;;;4950629;28;20098;-74
2023/04/20 03:22:34;;;;;;;0.10;0.10;;;6.10;99.90;;;;;;4953464;28;20027;-74
2023/04/20 03:24:59;;;;;;;0.00;0.00;;;6.10;99.90;;;;;;4966719;28;20041;-74
2023/04/20 03:27:25;;;;;;;0.05;0.05;;;6.20;99.90;;;;;;4966469;28;20039;-74
2023/04/20 03:29:51;;;;;;;0.65;0.65;;;6.10;99.90;;;;;;4965221;28;20070;-73
2023/04/20 03:32:17;;;;;;;0.65;0.65;;;6.20;99.90;;;;;;4947611;28;20042;-75
2023/04/20 03:34:42;;;;;;;0.08;0.08;;;6.10;99.90;;;;;;4965975;28;20023;-72
2023/04/20 03:37:08;;;;;;;0.00;0.00;;;7.00;99.90;;;;;;4965712;28;20037;-74
2023/04/20 03:39:34;;;;;;;0.00;0.00;;;6.00;99.90;;;;;;4947735;28;20529;-73
2023/04/20 03:42:02;;;;;;;0.10;0.10;;;6.00;99.90;;;;;;4965017;28;20057;-74
2023/04/20 03:44:28;;;;;;;0.28;0.28;;;6.60;99.90;;;;;;4965671;28;20509;-75
2023/04/20 03:46:54;;;;;;;0.00;0.00;;;6.00;99.90;;;;;;4970535;28;20085;-74
2023/04/20 03:49:23;;;;;;;0.35;0.35;;;6.00;99.90;;;;;;4951517;28;20035;-74
2023/04/20 03:51:50;;;;;;;0.00;0.00;;;5.90;99.90;;;;;;4970416;28;20030;-75
2023/04/20 03:54:16;;;;;;;0.00;0.00;;;5.90;99.90;;;;;;4973420;28;20038;-75
2023/04/20 03:56:43;;;;;;;0.10;0.10;;;5.90;99.90;;;;;;4976479;28;20023;-74
2023/04/20 03:59:10;;;;;;;0.05;0.05;;;5.80;99.90;;;;;;4973999;28;20050;-75
2023/04/20 04:01:39;;;;;;;0.00;0.00;;;5.80;99.90;;;;;;4967330;28;20026;-72
2023/04/20 04:04:04;;;;;;;0.00;0.00;;;5.80;99.90;;;;;;4955873;28;20598;-74
2023/04/20 04:06:31;;;;;;;0.10;0.10;;;5.70;99.90;;;;;;4971010;28;20053;-73
2023/04/20 04:08:56;;;;;;;0.00;0.00;;;5.70;99.90;;;;;;4972995;28;20034;-75
2023/04/20 04:11:24;;;;;;;0.00;0.00;;;5.70;99.90;;;;;;4957822;28;20029;-73
2023/04/20 04:13:50;;;;;;;0.10;0.10;;;5.70;99.90;;;;;;4968887;28;20409;-74
2023/04/20 04:16:15;;;;;;;0.00;0.00;;;5.70;99.90;;;;;;4968505;28;20022;-75
2023/04/20 04:18:46;;;;;;;0.00;0.00;;;5.60;99.90;;;;;;4971973;28;20106;-77
2023/04/20 04:21:13;;;;;;;0.00;0.00;;;5.60;99.90;;;;;;4968331;28;20369;-73
2023/04/20 04:23:41;;;;;;;0.00;0.00;;;5.70;99.90;;;;;;4971329;28;20244;-74
2023/04/20 04:26:07;;;;;;;0.00;0.00;;;5.60;99.90;;;;;;4954411;28;20019;-73
2023/04/20 04:28:33;;;;;;;0.00;0.00;;;5.60;99.90;;;;;;4959035;28;20097;-74
2023/04/20 04:31:00;;;;;;;0.00;0.00;;;5.60;99.90;;;;;;4971460;28;20034;-73
2023/04/20 04:33:26;;;;;;;0.10;0.10;;;5.60;99.90;;;;;;4961018;28;20608;-76
2023/04/20 04:35:52;;;;;;;0.00;0.00;;;5.70;99.90;;;;;;4968718;28;20034;-75
2023/04/20 04:38:18;;;;;;;0.00;0.00;;;5.60;99.90;;;;;;4987260;28;20026;-76
2023/04/20 04:40:46;;;;;;;0.00;0.00;;;5.70;99.90;;;;;;4984114;28;20046;-75
2023/04/20 04:43:12;;;;;;;0.05;0.05;;;5.70;99.90;;;;;;4972430;28;20030;-74
2023/04/20 04:45:39;;;;;;;0.00;0.00;;;5.60;99.90;;;;;;4960682;28;20035;-74
2023/04/20 04:48:07;;;;;;;0.00;0.00;;;5.70;99.90;;;;;;4954957;28;20525;-74
2023/04/20 04:50:34;;;;;;;0.00;0.00;;;5.70;99.90;;;;;;4978597;28;20026;-76
2023/04/20 04:53:01;;;;;;;0.10;0.10;;;5.70;99.90;;;;;;4974861;28;20058;-78
2023/04/20 04:55:28;;;;;;;0.10;0.10;;;5.80;99.90;;;;;;4971820;28;20130;-73
2023/04/20 04:57:54;;;;;;;0.08;0.08;;;5.80;99.90;;;;;;4969372;28;20064;-73
2023/04/20 05:00:21;;;;;;;0.00;0.00;;;5.90;99.90;;;;;;4949034;28;20442;-74
2023/04/20 05:02:47;;;;;;;0.00;0.00;;;5.90;99.90;;;;;;4955944;28;20030;-74
2023/04/20 05:05:13;;;;;;;0.10;0.10;;;5.90;99.90;;;;;;4972126;28;20026;-75
2023/04/20 05:07:39;;;;;;;0.00;0.00;;;6.00;99.90;;;;;;4965041;28;20027;-73
2023/04/20 05:10:06;;;;;;;0.00;0.00;;;6.00;99.90;;;;;;4973450;28;20037;-75
2023/04/20 05:12:32;;;;;;;0.03;0.03;;;6.10;99.90;;;;;;4958816;28;20345;-74
2023/04/20 05:14:58;;;;;;;0.20;0.20;;;6.20;99.90;;;;;;4971538;28;20540;-73
2023/04/20 05:17:25;;;;;;;0.00;0.00;;;6.20;99.90;;;;;;4974704;28;20030;-74
2023/04/20 05:19:51;;;;;;;0.30;0.30;;;6.20;99.90;;;;;;4979160;28;20261;-73
2023/04/20 05:22:17;;;;;;;0.10;0.10;;;6.20;99.90;;;;;;4976248;28;20023;-74
2023/04/20 05:24:43;;;;;;;0.00;0.00;;;6.30;99.90;;;;;;4970171;28;20019;-74
2023/04/20 05:27:10;;;;;;;0.00;0.00;;;6.30;99.90;;;;;;4968283;28;20644;-74
2023/04/20 05:29:36;;;;;;;0.00;0.00;;;7.80;99.90;;;;;;4970086;28;20057;-74
2023/04/20 05:32:02;;;;;;;0.20;0.20;;;6.40;99.90;;;;;;4967184;28;20111;-74
2023/04/20 05:34:28;;;;;;;0.00;0.00;;;6.50;99.90;;;;;;4965370;28;20058;-73
2023/04/20 05:36:55;;;;;;;0.00;0.00;;;6.60;99.90;;;;;;4965011;28;20497;-74
2023/04/20 05:39:21;;;;;;;0.00;0.00;;;6.70;99.90;;;;;;4973971;28;20034;-74
2023/04/20 05:41:47;;;;;;;1.10;1.10;;;6.80;99.90;;;;;;4966794;28;20030;-74
2023/04/20 05:44:13;;;;;;;0.00;0.00;;;6.90;99.90;;;;;;4966404;28;20030;-73
2023/04/20 05:46:39;;;;;;;0.10;0.10;;;7.00;99.90;;;;;;4947971;28;20109;-75
2023/04/20 05:49:05;;;;;;;0.10;0.10;;;6.90;99.90;;;;;;4966242;28;20429;-74
2023/04/20 05:51:32;;;;;;;0.00;0.00;;;7.30;99.90;;;;;;4965965;28;20505;-74
2023/04/20 05:54:00;;;;;;;0.17;0.17;;;7.30;99.90;;;;;;4965511;28;20018;-74
2023/04/20 05:56:26;;;;;;;0.10;0.10;;;7.40;99.90;;;;;;4969165;28;20050;-75
2023/04/20 05:58:52;;;;;;;0.10;0.10;;;7.50;99.90;;;;;;4971519;28;20051;-74
2023/04/20 06:01:18;;;;;;;0.10;0.10;;;7.60;99.90;;;;;;4972699;28;20026;-73
2023/04/20 06:03:44;;;;;;;0.08;0.08;;;7.60;99.90;;;;;;4966630;28;20388;-74
2023/04/20 06:06:10;;;;;;;0.05;0.05;;;7.70;99.90;;;;;;4965000;28;20501;-75
2023/04/20 06:08:36;;;;;;;0.10;0.10;;;7.90;99.90;;;;;;4965664;28;20031;-74
2023/04/20 06:11:01;;;;;;;0.10;0.10;;;8.00;99.90;;;;;;4966206;28;20019;-74
2023/04/20 06:13:28;;;;;;;0.10;0.10;;;;;;;;;;4963670;28;20034;-74
2023/04/20 06:15:53;;;;;;;0.03;0.03;;;8.20;99.90;;;;;;4964878;28;20030;-74
2023/04/20 06:18:20;;;;;;;0.10;0.10;;;8.60;99.90;;;;;;4962525;28;20039;-74
2023/04/20 06:20:46;;;;;;;0.17;0.17;;;8.60;99.90;;;;;;4966750;28;20130;-74
2023/04/20 06:23:12;;;;;;;0.20;0.20;;;8.50;99.90;;;;;;4968231;28;20031;-73
2023/04/20 06:25:38;;;;;;;0.10;0.10;;;;;;;;;;4949838;28;20023;-74
2023/04/20 06:28:05;;;;;;;0.10;0.10;;;8.70;99.90;;;;;;4968638;28;20138;-75
2023/04/20 06:30:32;;;;;;;0.10;0.10;;;8.80;99.90;;;;;;4974489;28;20033;-75
2023/04/20 06:32:59;;;;;;;0.10;0.10;;;9.00;99.90;;;;;;4977788;28;20031;-75
2023/04/20 06:35:25;;;;;;;0.10;0.10;;;9.10;99.90;;;;;;4968030;28;20034;-75
2023/04/20 06:37:51;;;;;;;5.40;5.20;;;9.10;99.90;;;;;;4972052;28;20015;-73
2023/04/20 06:40:17;;;;;;;0.10;0.10;;;6.90;99.90;;;;;;4970838;28;20351;-77
2023/04/20 06:42:44;;;;;;;0.93;0.93;;;9.20;99.90;;;;;;4969886;28;20027;-74
2023/04/20 06:45:10;;;;;;;0.20;0.20;;;9.10;99.90;;;;;;4969835;28;20026;-75
2023/04/20 06:47:36;;;;;;;0.20;0.20;;;9.30;99.90;;;;;;4972052;28;20034;-75
2023/04/20 06:50:07;;;;;;;0.10;0.10;;;9.50;99.90;;;;;;4976482;28;20418;-73
2023/04/20 06:52:37;;;;;;;0.10;0.10;;;9.50;99.90;;;;;;4971757;28;20220;-77
2023/04/20 06:55:04;;;;;;;0.28;0.28;;;9.50;99.90;;;;;;4971892;28;20051;-74
2023/04/20 06:57:30;;;;;;;0.10;0.10;;;9.60;99.90;;;;;;4950667;28;20125;-74
2023/04/20 06:59:57;;;;;;;3.53;3.42;;;9.70;99.90;;;;;;4966886;28;20130;-74
2023/04/20 07:02:23;;;;;;;0.10;0.10;;;9.80;99.90;;;;;;4967620;28;20541;-74
2023/04/20 07:04:49;;;;;;;1.30;1.30;;;9.90;99.90;;;;;;4966928;28;20046;-73
2023/04/20 07:07:15;;;;;;;6.68;6.43;;;10.10;99.90;;;;;;4968977;28;20062;-74
2023/04/20 07:09:41;;;;;;;2.33;2.28;;;10.20;99.90;;;;;;4971763;28;20033;-74
2023/04/20 07:12:08;;;;;;;0.10;0.10;;;9.70;99.90;;;;;;4973816;28;20023;-75
2023/04/20 07:14:33;;;;;;;0.20;0.20;;;9.60;99.90;;;;;;4973555;28;20059;-76
2023/04/20 07:16:59;;;;;;;0.10;0.10;;;10.00;99.90;;;;;;4974915;28;20328;-76
2023/04/20 07:19:25;;;;;;;0.10;0.10;;;10.20;99.90;;;;;;4954055;28;20043;-77
2023/04/20 07:21:51;;;;;;;0.10;0.10;;;10.60;99.90;;;;;;4967622;28;20256;-75
2023/04/20 07:24:17;;;;;;;0.10;0.10;;;10.50;99.90;;;;;;4965231;28;20015;-76
2023/04/20 07:26:43;;;;;;;0.30;0.30;;;;;;;;;;4965938;28;20041;-75
2023/04/20 07:29:10;;;;;;;0.20;0.20;;;10.70;99.90;;;;;;4967506;28;20026;-74
2023/04/20 07:31:36;;;;;;;1.23;1.23;;;11.30;99.90;;;;;;4966615;28;20297;-80
2023/04/20 07:34:02;;;;;;;0.10;0.10;;;11.00;99.90;;;;;;4962267;28;20379;-74
2023/04/20 07:36:28;;;;;;;0.10;0.10;;;11.20;99.90;;;;;;4966890;28;20027;-76
2023/04/20 07:38:54;;;;;;;0.68;0.68;;;11.40;99.90;;;;;;4969795;28;20110;-74
2023/04/20 07:41:21;;;;;;;0.45;0.45;;;11.50;99.90;;;;;;4964475;28;20278;-74
2023/04/20 07:43:47;;;;;;;0.10;0.10;;;11.50;99.90;;;;;;4963199;28;20025;-79
2023/04/20 07:46:22;;;;;;;2.67;2.58;;;11.60;99.90;;;;;;4962683;28;20026;-74
2023/04/20 07:48:48;;;;;;;0.20;0.20;;;11.60;99.90;;;;;;4961480;28;20085;-76
2023/04/20 07:51:14;;;;;;;0.10;0.10;;;11.70;99.90;;;;;;4962450;28;20336;-76
2023/04/20 07:53:41;;;;;;;0.10;0.10;;;11.80;99.90;;;;;;4961221;28;20030;-74
2023/04/20 07:56:07;;;;;;;0.10;0.10;;;12.00;99.90;;;;;;4961543;28;20023;-77
2023/04/20 07:58:33;;;;;;;0.20;0.20;;;12.30;99.90;;;;;;4960537;28;20078;-74
2023/04/20 08:00:59;;;;;;;0.70;0.70;;;12.40;99.90;;;;;;4960956;28;20105;-75
2023/04/20 08:03:27;;;;;;;0.17;0.17;;;12.50;99.90;;;;;;4960541;28;20042;-74
2023/04/20 08:05:53;;;;;;;0.10;0.10;;;12.70;99.90;;;;;;4961059;28;20068;-74
2023/04/20 08:08:19;;;;;;;0.20;0.20;;;12.70;99.90;;;;;;4960951;28;20039;-74
2023/04/20 08:10:45;;;;;;;1.15;1.15;;;12.90;99.90;;;;;;4943631;28;20529;-75
2023/04/20 08:13:10;;;;;;;0.10;0.10;;;12.50;99.90;;;;;;4960716;28;20011;-75
2023/04/20 08:15:36;;;;;;;0.20;0.20;;;12.80;99.90;;;;;;4961021;28;20030;-74
2023/04/20 08:18:02;;;;;;;0.20;0.20;;;13.00;99.90;;;;;;4960542;28;20030;-74
2023/04/20 08:20:28;;;;;;;0.13;0.13;;;13.00;99.90;;;;;;4960575;28;20108;-74
2023/04/20 08:22:54;;;;;;;0.20;0.20;;;12.80;99.90;;;;;;4960481;28;20019;-79
2023/04/20 08:25:19;;;;;;;0.20;0.20;;;12.80;99.90;;;;;;4960069;28;20094;-73
2023/04/20 08:27:45;;;;;;;0.15;0.15;;;13.40;99.90;;;;;;4960763;28;20538;-76
2023/04/20 08:30:11;;;;;;;0.20;0.20;;;13.50;99.90;;;;;;4942882;28;20027;-76
2023/04/20 08:32:39;;;;;;;0.10;0.10;;;;;;;;;;4960362;28;20069;-74
2023/04/20 08:35:06;;;;;;;0.10;0.10;;;13.40;99.90;;;;;;4960368;28;20667;-75
2023/04/20 08:37:31;;;;;;;0.50;0.50;;;13.60;99.90;;;;;;4960305;28;20644;-74
2023/04/20 08:39:57;;;;;;;0.20;0.20;;;13.70;99.90;;;;;;4960819;28;20026;-74
2023/04/20 08:42:23;;;;;;;0.10;0.10;;;13.70;99.90;;;;;;4960203;28;20154;-76
2023/04/20 08:44:49;;;;;;;0.10;0.10;;;13.90;99.90;;;;;;4960477;28;20202;-76
2023/04/20 08:47:15;;;;;;;0.10;0.10;;;13.90;99.90;;;;;;4960093;28;20038;-74
2023/04/20 08:49:43;;;;;;;0.10;0.10;;;14.10;99.90;;;;;;4960206;28;20019;-73
2023/04/20 08:52:10;;;;;;;0.55;0.55;;;14.10;99.90;;;;;;4959896;28;20217;-78
2023/04/20 08:54:37;;;;;;;0.10;0.10;;;14.20;99.90;;;;;;4960311;28;20029;-75
2023/04/20 08:57:03;;;;;;;0.10;0.10;;;14.40;99.90;;;;;;4960582;28;20026;-78
2023/04/20 08:59:30;;;;;;;0.10;0.10;;;14.70;99.90;;;;;;4960195;28;20125;-74
2023/04/20 09:02:10;;;;;;;3.20;3.10;;;14.70;99.90;;;;;;4960452;28;20636;-78
2023/04/20 09:04:36;;;;;;;0.10;0.10;;;13.60;99.90;;;;;;4959628;28;20034;-74
2023/04/20 09:07:02;;;;;;;0.10;0.10;;;14.50;99.90;;;;;;4959445;28;20027;-77
2023/04/20 09:09:28;;;;;;;4.20;3.50;;;;;;;;;;4960103;28;20430;-82
2023/04/20 09:12:05;;;;;;;0.10;0.10;;;14.70;99.90;;;;;;4960074;28;20102;-73
2023/04/20 09:14:45;;;;;;;0.10;0.10;;;15.00;99.90;;;;;;4960113;28;20094;-76
2023/04/20 09:17:13;;;;;;;0.30;0.30;;;15.30;99.90;;;;;;4959305;28;20664;-73
2023/04/20 09:19:39;;;;;;;0.15;0.15;;;15.40;99.90;;;;;;4959480;28;20082;-84
2023/04/20 09:22:05;;;;;;;0.95;0.93;;;15.40;99.90;;;;;;4960003;28;20034;-78
2023/04/20 09:24:36;;;;;;;0.30;0.30;;;15.30;99.90;;;;;;4960079;28;20050;-75
2023/04/20 09:27:24;;;;;;;0.10;0.10;;;15.50;99.90;;;;;;4959615;28;20041;-74
2023/04/20 09:29:58;;;;;;;1.65;1.17;;;15.40;99.90;;;;;;4959409;28;20061;-74
2023/04/20 09:32:25;;;;;;;0.10;0.10;;;15.50;99.90;;;;;;4942415;28;20054;-73
2023/04/20 09:34:51;;;;;;;0.10;0.10;;;15.40;99.90;;;;;;4959469;28;20106;-75
2023/04/20 09:37:17;;;;;;;0.10;0.10;;;15.40;99.90;;;;;;4959590;28;20672;-74
2023/04/20 09:39:44;;;;;;;0.40;0.40;;;15.50;99.90;;;;;;4960041;28;20236;-74
2023/04/20 09:42:14;;;;;;;0.20;0.20;;;15.80;99.90;;;;;;4960130;28;20024;-73
2023/04/20 09:44:40;;;;;;;0.10;0.10;;;16.00;99.90;;;;;;4960044;28;20029;-75
2023/04/20 09:47:07;;;;;;;0.10;0.10;;;16.60;99.90;;;;;;4942574;28;20061;-73
2023/04/20 09:49:33;;;;;;;0.30;0.30;;;16.30;98.50;;;;;;4959463;28;20124;-75
2023/04/20 09:52:03;;;;;;;1.27;1.25;;;16.40;97.80;;;;;;4959584;28;20022;-75
2023/04/20 09:54:30;;;;;;;0.10;0.10;;;16.70;93.80;;;;;;4959282;28;20030;-75
2023/04/20 09:56:58;;;;;;;0.75;0.75;;;17.10;92.50;;;;;;4959353;28;20023;-83
2023/04/20 09:59:26;;;;;;;1.65;1.55;;;16.90;91.00;;;;;;4959594;28;20682;-75
2023/04/20 10:01:52;;;;;;;0.20;0.20;;;17.00;97.00;;;;;;4960016;28;20106;-75
2023/04/20 10:04:18;;;;;;;0.10;0.10;;;17.30;93.00;;;;;;4959041;28;20078;-73
2023/04/20 10:06:54;;;;;;;0.10;0.10;;;17.50;92.60;;;;;;4958994;28;20033;-80
2023/04/20 10:09:25;;;;;;;0.10;0.10;;;17.50;91.20;;;;;;4958943;28;20027;-79
2023/04/20 10:11:52;;;;;;;0.10;0.10;;;17.60;88.80;;;;;;4941712;28;20023;-73
2023/04/20 10:14:21;;;;;;;0.10;0.10;;;17.60;88.70;;;;;;4959886;28;20027;-77
2023/04/20 10:16:59;;;;;;;0.10;0.10;;;17.50;94.60;;;;;;4959782;28;20035;-75
2023/04/20 10:19:35;;;;;;;0.10;0.10;;;17.20;95.90;;;;;;4958907;28;20082;-73
2023/04/20 10:22:01;;;;;;;0.10;0.10;;;17.20;97.10;;;;;;4959341;28;20023;-77
2023/04/20 10:24:30;;;;;;;0.50;0.50;;;17.00;97.40;;;;;;4958998;28;20102;-73
2023/04/20 10:26:57;;;;;;;0.10;0.10;;;16.70;96.60;;;;;;4959152;28;20015;-73
2023/04/20 10:29:26;;;;;;;0.10;0.10;;;16.30;99.50;;;;;;4959178;28;20031;-82
2023/04/20 10:31:53;;;;;;;0.10;0.10;;;16.20;99.90;;;;;;4958052;28;20059;-73
2023/04/20 10:34:35;;;;;;;0.10;0.10;;;16.20;99.50;;;;;;4959012;28;20014;-74
2023/04/20 10:37:12;;;;;;;0.10;0.10;;;16.00;99.90;;;;;;4959979;28;20019;-73
2023/04/20 10:39:45;;;;;;;0.10;0.10;;;15.90;99.90;;;;;;4961047;28;20015;-73
2023/04/20 10:42:12;;;;;;;0.10;0.10;;;15.80;99.90;;;;;;4943667;28;20030;-74
2023/04/20 10:44:53;;;;;;;0.10;0.10;;;15.80;99.90;;;;;;4960541;28;20026;-73
2023/04/20 10:47:28;;;;;;;0.10;0.10;;;15.80;99.90;;;;;;4959447;28;20039;-74
2023/04/20 10:49:54;;;;;;;0.45;0.45;;;15.90;99.90;;;;;;4959169;28;20031;-73
2023/04/20 10:52:37;;;;;;;0.10;0.10;;;16.00;99.90;;;;;;4958825;28;20034;-73
2023/04/20 10:55:03;;;;;;;7.25;5.05;;;14.90;99.30;;;;;;4959113;28;20030;-73
2023/04/20 10:57:29;;;;;;;0.10;0.10;;;16.10;97.90;;;;;;4958748;28;20023;-76
2023/04/20 10:59:55;;;;;;;1.17;1.17;;;16.20;97.60;;;;;;4959264;28;20051;-73
2023/04/20 11:02:21;;;;;;;0.10;0.10;;;16.30;97.70;;;;;;4941905;28;20480;-75
2023/04/20 11:04:47;;;;;;;0.10;0.10;;;16.40;97.00;;;;;;4958835;28;20015;-77
2023/04/20 11:07:12;;;;;;;0.10;0.10;;;16.60;94.50;;;;;;4958888;28;20027;-77
2023/04/20 11:09:38;;;;;;;0.10;0.10;;;16.80;94.00;;;;;;4959295;28;20051;-75
2023/04/20 11:12:06;;;;;;;0.10;0.10;;;16.90;94.70;;;;;;4961338;28;20076;-76
2023/04/20 11:14:37;;;;;;;0.10;0.10;;;17.10;92.20;;;;;;4963215;28;20106;-76
2023/04/20 11:17:03;;;;;;;0.30;0.30;;;17.40;91.80;;;;;;4946390;28;20047;-74
2023/04/20 11:19:33;;;;;;;0.20;0.20;;;17.60;91.10;;;;;;4953448;28;20046;-81
2023/04/20 11:22:00;;;;;;;0.30;0.30;;;17.90;91.50;;;;;;4982914;28;20661;-75
2023/04/20 11:24:32;;;;;;;1.25;1.00;;;20.20;90.30;;;;;;4982340;28;20097;-75
2023/04/20 11:26:59;;;;;;;0.10;0.10;;;18.30;84.60;;;;;;4982335;28;20015;-75
2023/04/20 11:29:32;;;;;;;0.10;0.10;;;18.40;79.40;;;;;;4982442;28;20029;-81
2023/04/20 11:31:58;;;;;;;;;;;18.60;78.90;;;;;;4982129;28;20010;-73
2023/04/20 11:34:24;;;;;;;0.10;0.10;;;18.50;78.90;;;;;;4980939;28;19997;-75
2023/04/20 11:36:50;;;;;;;0.10;0.10;;;18.50;76.30;;;;;;4981074;28;20101;-74
2023/04/20 11:39:24;;;;;;;0.15;0.15;;;18.60;75.50;;;;;;4980910;28;20103;-75
2023/04/20 11:41:51;;;;;;;0.10;0.10;;;18.70;74.10;;;;;;4980782;28;20647;-75
2023/04/20 11:44:19;;;;;;;0.10;0.10;;;18.90;74.60;;;;;;4963554;28;20019;-77
2023/04/20 11:46:47;;;;;;;0.10;0.10;;;18.90;73.10;;;;;;4963996;28;20096;-72
2023/04/20 11:49:16;;;;;;;0.10;0.10;;;19.00;74.10;;;;;;4964775;28;20046;-73
2023/04/20 11:51:43;;;;;;;0.10;0.10;;;19.50;74.90;;;;;;4983098;28;20026;-75
2023/04/20 11:54:10;;;;;;;0.25;0.25;;;20.30;72.80;;;;;;4982007;28;20033;-79
2023/04/20 11:56:36;;;;;;;0.10;0.10;;;21.10;71.40;;;;;;4982394;28;20033;-79
2023/04/20 11:59:03;;;;;;;0.10;0.10;;;22.10;67.10;;;;;;4981985;28;20076;-75
2023/04/20 12:01:29;;;;;;;0.43;0.22;;;22.60;62.90;;;;;;4981491;28;20030;-73
2023/04/20 12:03:55;;;;;;;0.10;0.10;;;23.10;61.00;;;;;;4981226;28;20279;-76
2023/04/20 12:06:21;;;;;;;0.10;0.10;;;23.50;59.70;;;;;;4981437;28;20720;-73
2023/04/20 12:08:47;;;;;;;0.28;0.28;;;24.00;58.80;;;;;;4981895;28;20109;-80
2023/04/20 12:11:15;;;;;;;0.75;0.75;;;24.00;56.90;;;;;;4981573;28;20134;-73
2023/04/20 12:13:41;;;;;;;0.00;0.00;;;23.80;57.30;;;;;;4981045;28;20027;-73
2023/04/20 12:16:07;;;;;;;2.65;2.55;;;23.40;56.50;;;;;;4980412;28;20130;-73
2023/04/20 12:18:33;;;;;;;0.10;0.10;;;22.90;57.10;;;;;;4980038;28;20136;-73
2023/04/20 12:20:59;;;;;;;0.10;0.10;;;22.10;56.90;;;;;;4980894;28;20682;-73
2023/04/20 12:23:25;;;;;;;0.10;0.10;;;21.90;57.80;;;;;;4980524;28;20041;-71
2023/04/20 12:25:51;;;;;;;3.03;2.40;;;21.70;59.20;;;;;;4979865;28;20030;-72
2023/04/20 12:28:17;;;;;;;0.45;0.45;;;21.80;60.60;;;;;;4980636;28;20084;-73
2023/04/20 12:30:43;;;;;;;0.22;0.22;;;22.20;61.30;;;;;;4964765;28;20030;-80
2023/04/20 12:33:10;;;;;;;0.10;0.10;;;22.50;61.80;;;;;;4983195;28;20398;-74
2023/04/20 12:35:37;;;;;;;0.10;0.10;;;23.40;60.90;;;;;;4982277;28;20022;-73
2023/04/20 12:38:03;;;;;;;0.10;0.10;;;23.90;56.60;;;;;;4981596;28;20033;-73
2023/04/20 12:40:29;;;;;;;0.00;0.00;;;24.30;56.10;;;;;;4981667;28;20022;-73
2023/04/20 12:42:55;;;;;;;0.25;0.15;;;24.70;55.90;;;;;;4981052;28;20034;-74
2023/04/20 12:45:22;;;;;;;0.22;0.22;;;24.50;55.00;;;;;;4981565;28;20029;-79
2023/04/20 12:47:48;;;;;;;0.00;0.00;;;24.50;54.60;;;;;;4963458;28;20683;-73
2023/04/20 12:50:13;;;;;;;0.10;0.10;;;24.00;54.00;;;;;;4980650;28;20027;-73
2023/04/20 12:52:39;;;;;;;1.55;1.45;;;23.90;55.50;;;;;;4980429;28;20042;-73
2023/04/20 12:55:06;;;;;;;3.60;1.45;;;23.90;57.50;;;;;;4981720;28;20027;-74
2023/04/20 12:57:32;;;;;;;0.10;0.10;;;23.10;59.90;;;;;;4981669;28;20026;-77
2023/04/20 12:59:58;;;;;;;0.52;0.52;;;22.90;62.40;;;;;;4982062;28;20742;-74